createdAt,value
2017-08-30T00:01:32.544Z,82.80
2017-08-30T00:06:51.294Z,81.30
2017-08-30T00:12:07.758Z,82.70
2017-08-30T00:17:16.806Z,81.90
2017-08-30T00:22:18.431Z,82.60
2017-08-30T00:27:20.434Z,81.50
2017-08-30T00:32:22.653Z,81.20
2017-08-30T00:37:24.393Z,81.70
2017-08-30T00:42:26.026Z,81.70
2017-08-30T00:47:27.720Z,81.50
2017-08-30T00:52:29.593Z,81.70
2017-08-30T00:57:31.493Z,82.80
2017-08-30T01:02:34.682Z,83.80
2017-08-30T01:07:36.664Z,82.50
2017-08-30T01:12:38.302Z,82.70
2017-08-30T01:17:40.028Z,83.20
2017-08-30T01:22:42.361Z,82.00
2017-08-30T01:27:44.175Z,84.40
2017-08-30T01:32:45.841Z,86.80
2017-08-30T01:37:47.725Z,87.20
2017-08-30T01:42:49.417Z,88.70
2017-08-30T01:47:51.844Z,91.70
2017-08-30T01:52:54.265Z,89.90
2017-08-30T01:57:56.444Z,88.60
2017-08-30T02:02:58.732Z,85.90
2017-08-30T02:08:00.543Z,86.10
2017-08-30T02:13:02.193Z,85.50
2017-08-30T02:18:03.960Z,84.70
2017-08-30T02:23:05.766Z,84.60
2017-08-30T02:28:07.950Z,84.80
2017-08-30T02:33:11.952Z,87.40
2017-08-30T02:38:28.460Z,86.80
2017-08-30T02:43:44.916Z,85.70
2017-08-30T02:49:01.597Z,86.20
2017-08-30T02:54:17.923Z,85.70
2017-08-30T02:59:19.735Z,88.10
2017-08-30T03:04:40.159Z,90.40
2017-08-30T03:09:41.921Z,90.80
2017-08-30T03:14:58.532Z,92.10
2017-08-30T03:20:01.240Z,88.00
2017-08-30T03:25:02.913Z,86.50
2017-08-30T03:30:04.790Z,88.00
2017-08-30T03:35:06.516Z,89.30
2017-08-30T03:40:08.244Z,88.90
2017-08-30T03:45:09.988Z,87.20
2017-08-30T03:50:11.661Z,89.00
2017-08-30T03:55:13.357Z,88.80
2017-08-30T04:00:16.741Z,89.70
2017-08-30T04:05:18.422Z,90.10
2017-08-30T04:10:20.222Z,90.30
2017-08-30T04:15:21.899Z,87.90
2017-08-30T04:20:23.700Z,89.30
2017-08-30T04:25:26.029Z,87.20
2017-08-30T04:30:28.009Z,87.70
2017-08-30T04:35:30.221Z,88.60
2017-08-30T04:40:31.892Z,92.30
2017-08-30T04:45:33.565Z,89.50
2017-08-30T04:50:35.237Z,85.70
2017-08-30T04:55:36.911Z,85.60
2017-08-30T05:00:38.789Z,84.10
2017-08-30T05:05:40.438Z,83.70
2017-08-30T05:10:42.007Z,86.80
2017-08-30T05:15:43.582Z,90.40
2017-08-30T05:20:45.353Z,90.80
2017-08-30T05:25:47.126Z,89.10
2017-08-30T05:30:48.806Z,88.00
2017-08-30T05:35:50.476Z,86.50
2017-08-30T05:40:52.170Z,86.30
2017-08-30T05:45:53.843Z,84.50
2017-08-30T05:50:55.485Z,84.70
2017-08-30T05:55:57.166Z,86.20
2017-08-30T06:00:58.859Z,86.00
2017-08-30T06:06:01.208Z,84.50
2017-08-30T06:11:03.469Z,84.40
2017-08-30T06:16:05.208Z,84.70
2017-08-30T06:21:06.858Z,86.30
2017-08-30T06:26:09.170Z,87.60
2017-08-30T06:31:10.841Z,90.30
2017-08-30T06:36:12.493Z,88.60
2017-08-30T06:41:14.262Z,83.90
2017-08-30T06:46:16.312Z,82.20
2017-08-30T06:51:19.047Z,80.40
2017-08-30T06:56:21.479Z,79.20
2017-08-30T07:01:23.232Z,80.10
2017-08-30T07:06:25.816Z,79.10
2017-08-30T07:11:27.602Z,76.80
2017-08-30T07:16:29.835Z,73.10
2017-08-30T07:21:31.898Z,72.30
2017-08-30T07:26:34.036Z,73.20
2017-08-30T07:31:35.805Z,70.20
2017-08-30T07:36:37.378Z,69.50
2017-08-30T07:41:38.941Z,70.90
2017-08-30T07:46:40.517Z,69.00
2017-08-30T07:51:42.074Z,67.90
2017-08-30T07:56:43.646Z,69.70
2017-08-30T08:01:45.233Z,70.80
2017-08-30T08:06:46.813Z,72.50
2017-08-30T08:11:48.391Z,72.50
2017-08-30T08:16:49.953Z,69.90
2017-08-30T08:21:51.530Z,66.10
2017-08-30T08:26:53.103Z,62.70
2017-08-30T08:31:54.660Z,62.00
2017-08-30T08:36:56.250Z,59.30
2017-08-30T08:41:57.834Z,58.30
2017-08-30T08:46:59.417Z,57.80
2017-08-30T08:52:00.995Z,56.60
2017-08-30T08:57:02.593Z,55.00
2017-08-30T09:02:04.162Z,55.20
2017-08-30T09:07:05.729Z,48.80
2017-08-30T09:12:07.302Z,46.80
2017-08-30T09:17:08.884Z,49.30
2017-08-30T09:22:10.448Z,46.20
2017-08-30T09:27:12.022Z,46.00
2017-08-30T09:32:13.616Z,48.20
2017-08-30T09:37:15.205Z,46.70
2017-08-30T09:42:16.773Z,46.20
2017-08-30T09:47:18.343Z,43.10
2017-08-30T09:52:19.913Z,42.90
2017-08-30T09:57:21.489Z,42.90
2017-08-30T10:02:23.081Z,46.20
2017-08-30T10:07:24.648Z,43.90
2017-08-30T10:12:26.218Z,46.00
2017-08-30T10:17:27.785Z,45.30
2017-08-30T10:22:29.357Z,46.30
2017-08-30T10:27:30.946Z,46.40
2017-08-30T10:32:32.465Z,47.40
2017-08-30T10:37:34.054Z,45.60
2017-08-30T10:42:35.620Z,46.00
2017-08-30T10:47:38.101Z,45.80
2017-08-30T10:52:39.721Z,45.00
2017-08-30T10:57:41.292Z,44.70
2017-08-30T11:02:42.861Z,47.30
2017-08-30T11:07:44.445Z,45.10
2017-08-30T11:12:46.028Z,46.50
2017-08-30T11:17:47.604Z,46.10
2017-08-30T11:22:49.218Z,45.70
2017-08-30T11:27:50.775Z,46.20
2017-08-30T11:32:52.344Z,46.60
2017-08-30T11:37:53.922Z,48.40
2017-08-30T11:42:55.482Z,48.20
2017-08-30T11:47:57.048Z,50.00
2017-08-30T11:52:58.633Z,49.80
2017-08-30T11:58:00.209Z,49.70
2017-08-30T12:03:01.789Z,49.70
2017-08-30T12:08:03.353Z,49.40
2017-08-30T12:13:04.916Z,49.20
2017-08-30T12:18:06.485Z,49.60
2017-08-30T12:23:08.053Z,49.80
2017-08-30T12:28:09.637Z,50.60
2017-08-30T12:33:11.204Z,49.40
2017-08-30T12:38:18.826Z,50.30
2017-08-30T12:43:20.409Z,50.30
2017-08-30T12:48:21.977Z,50.30
2017-08-30T12:53:23.548Z,50.00
2017-08-30T12:58:25.113Z,50.50
2017-08-30T13:03:26.719Z,50.00
2017-08-30T13:08:28.289Z,51.00
2017-08-30T13:13:29.813Z,49.50
2017-08-30T13:18:31.385Z,47.50
2017-08-30T13:23:32.944Z,48.30
2017-08-30T13:28:34.509Z,47.10
2017-08-30T13:33:36.081Z,46.80
2017-08-30T13:38:37.658Z,46.20
2017-08-30T13:43:39.917Z,47.00
2017-08-30T13:48:41.491Z,46.70
2017-08-30T13:53:43.056Z,47.90
2017-08-30T13:58:44.627Z,47.20
2017-08-30T14:03:46.193Z,48.60
2017-08-30T14:08:47.767Z,49.30
2017-08-30T14:13:49.327Z,49.60
2017-08-30T14:18:50.904Z,48.70
2017-08-30T14:23:52.473Z,48.30
2017-08-30T14:28:54.069Z,49.60
2017-08-30T14:33:55.672Z,49.50
2017-08-30T14:38:57.273Z,49.60
2017-08-30T14:43:58.841Z,49.00
2017-08-30T14:49:00.415Z,49.50
2017-08-30T14:54:02.027Z,49.70
2017-08-30T14:59:03.670Z,49.00
2017-08-30T15:04:05.271Z,49.90
2017-08-30T15:09:06.869Z,50.10
2017-08-30T15:14:08.460Z,50.30
2017-08-30T15:19:10.044Z,50.80
2017-08-30T15:24:11.644Z,51.70
2017-08-30T15:29:13.221Z,52.40
2017-08-30T15:34:14.801Z,53.20
2017-08-30T15:39:16.421Z,52.40
2017-08-30T15:44:18.074Z,52.10
2017-08-30T15:49:19.670Z,52.50
2017-08-30T15:54:22.172Z,52.80
2017-08-30T15:59:23.858Z,53.00
2017-08-30T16:04:26.146Z,52.70
2017-08-30T16:09:27.893Z,53.30
2017-08-30T16:14:29.473Z,54.00
2017-08-30T16:19:31.266Z,54.20
2017-08-30T16:24:33.018Z,54.30
2017-08-30T16:29:34.714Z,53.90
2017-08-30T16:34:36.489Z,54.80
2017-08-30T16:39:38.161Z,54.90
2017-08-30T16:44:39.937Z,55.30
2017-08-30T16:49:41.610Z,55.50
2017-08-30T16:54:43.285Z,56.30
2017-08-30T16:59:44.929Z,56.60
2017-08-30T17:04:47.655Z,56.50
2017-08-30T17:09:50.219Z,56.40
2017-08-30T17:14:51.818Z,56.90
2017-08-30T17:19:53.470Z,56.90
2017-08-30T17:24:55.016Z,57.00
2017-08-30T17:29:57.146Z,58.00
2017-08-30T17:34:58.816Z,57.50
2017-08-30T17:40:00.469Z,57.60
2017-08-30T17:45:02.163Z,58.50
2017-08-30T17:50:05.737Z,57.60
2017-08-30T17:55:07.352Z,58.20
2017-08-30T18:00:09.201Z,59.70
2017-08-30T18:05:10.981Z,60.40
2017-08-30T18:10:13.705Z,62.60
2017-08-30T18:15:16.480Z,63.10
2017-08-30T18:20:19.746Z,63.30
2017-08-30T18:25:22.068Z,62.70
2017-08-30T18:30:25.167Z,61.70
2017-08-30T18:35:28.206Z,61.80
2017-08-30T18:40:30.602Z,61.50
2017-08-30T18:45:33.717Z,62.50
2017-08-30T18:50:37.017Z,63.50
2017-08-30T18:55:39.410Z,64.40
2017-08-30T19:00:42.292Z,65.30
2017-08-30T19:05:45.203Z,65.90
2017-08-30T19:10:47.396Z,66.90
2017-08-30T19:15:49.864Z,67.50
2017-08-30T19:20:54.342Z,67.30
2017-08-30T19:25:56.903Z,66.70
2017-08-30T19:30:59.414Z,67.50
2017-08-30T19:36:02.308Z,68.00
2017-08-30T19:41:06.548Z,69.30
2017-08-30T19:46:09.528Z,66.90
2017-08-30T19:51:12.406Z,65.80
2017-08-30T19:56:14.099Z,65.90
2017-08-30T20:01:15.771Z,66.60
2017-08-30T20:06:18.663Z,67.50
2017-08-30T20:11:22.214Z,65.50
2017-08-30T20:16:24.627Z,63.20
2017-08-30T20:21:27.911Z,63.10
2017-08-30T20:26:32.535Z,61.50
2017-08-30T20:31:34.334Z,63.90
2017-08-30T20:36:36.087Z,63.30
2017-08-30T20:41:38.360Z,61.90
2017-08-30T20:46:41.093Z,57.90
2017-08-30T20:51:42.765Z,59.00
2017-08-30T20:56:44.438Z,59.40
2017-08-30T21:01:47.144Z,61.70
2017-08-30T21:06:49.727Z,63.90
2017-08-30T21:11:51.446Z,65.20
2017-08-30T21:16:53.122Z,65.00
2017-08-30T21:21:54.850Z,66.30
2017-08-30T21:26:56.494Z,66.70
2017-08-30T21:31:59.221Z,66.40
2017-08-30T21:37:00.877Z,67.10
2017-08-30T21:42:02.566Z,67.00
2017-08-30T21:47:04.340Z,67.40
2017-08-30T21:52:05.990Z,67.90
2017-08-30T21:57:08.654Z,68.10
2017-08-30T22:02:10.357Z,68.30
2017-08-30T22:07:13.081Z,68.90
2017-08-30T22:12:14.752Z,69.00
2017-08-30T22:17:17.452Z,69.90
2017-08-30T22:22:19.125Z,69.70
2017-08-30T22:27:20.797Z,70.40
2017-08-30T22:32:22.468Z,71.60
2017-08-30T22:37:24.243Z,72.60
2017-08-30T22:42:25.889Z,71.30
2017-08-30T22:47:27.690Z,71.60
2017-08-30T22:52:30.388Z,72.20
2017-08-30T22:57:32.039Z,74.00
2017-08-30T23:02:33.735Z,73.70
2017-08-30T23:07:36.610Z,75.10
2017-08-30T23:12:38.283Z,75.80
2017-08-30T23:17:40.600Z,76.70
2017-08-30T23:22:42.268Z,75.80
2017-08-30T23:27:44.937Z,75.60
2017-08-30T23:32:46.614Z,75.40
2017-08-30T23:37:49.333Z,74.30
2017-08-30T23:42:50.981Z,74.50
2017-08-30T23:47:53.826Z,74.00
2017-08-30T23:52:56.401Z,73.60
2017-08-30T23:57:58.010Z,73.10
